sensor_id;sensor_type;location;lat;lon;timestamp;pressure;altitude;pressure_sealevel;temperature;humidity
28921;BME280;16035;53.594;9.952;2024-02-16T00:00:56;101107.44;;;12.58;87.78
28921;BME280;16035;53.594;9.952;2024-02-16T00:02:57;101106.09;;;12.61;87.64
28921;BME280;16035;53.594;9.952;2024-02-16T00:04:57;101096.28;;;12.55;87.58
28921;BME280;16035;53.594;9.952;2024-02-16T00:06:58;101093.78;;;12.53;87.52
28921;BME280;16035;53.594;9.952;2024-02-16T00:08:58;101094.06;;;12.52;87.69
28921;BME280;16035;53.594;9.952;2024-02-16T00:10:58;101091.63;;;12.55;87.46
28921;BME280;16035;53.594;9.952;2024-02-16T00:12:59;101090.53;;;12.56;87.34
28921;BME280;16035;53.594;9.952;2024-02-16T00:15:00;101083.47;;;12.55;87.48
28921;BME280;16035;53.594;9.952;2024-02-16T00:17:00;101085.00;;;12.41;86.93
28921;BME280;16035;53.594;9.952;2024-02-16T00:19:01;101086.97;;;12.46;87.29
28921;BME280;16035;53.594;9.952;2024-02-16T00:21:01;101073.56;;;12.44;87.53
28921;BME280;16035;53.594;9.952;2024-02-16T00:23:02;101077.94;;;12.45;86.99
28921;BME280;16035;53.594;9.952;2024-02-16T00:25:02;101072.47;;;12.45;87.26
28921;BME280;16035;53.594;9.952;2024-02-16T00:27:03;101060.53;;;12.51;87.07
28921;BME280;16035;53.594;9.952;2024-02-16T00:29:06;101057.50;;;12.48;87.16
28921;BME280;16035;53.594;9.952;2024-02-16T00:31:06;101062.16;;;12.47;87.24
28921;BME280;16035;53.594;9.952;2024-02-16T00:33:06;101062.16;;;12.52;87.04
28921;BME280;16035;53.594;9.952;2024-02-16T00:35:07;101059.16;;;12.49;86.84
28921;BME280;16035;53.594;9.952;2024-02-16T00:37:07;101057.25;;;12.49;87.12
28921;BME280;16035;53.594;9.952;2024-02-16T00:39:12;101049.88;;;12.50;86.97
28921;BME280;16035;53.594;9.952;2024-02-16T00:41:19;101050.72;;;12.50;86.83
28921;BME280;16035;53.594;9.952;2024-02-16T00:43:20;101045.81;;;12.52;86.49
28921;BME280;16035;53.594;9.952;2024-02-16T00:45:20;101045.28;;;12.50;86.60
28921;BME280;16035;53.594;9.952;2024-02-16T00:47:20;101050.44;;;12.52;86.38
28921;BME280;16035;53.594;9.952;2024-02-16T00:49:21;101042.56;;;12.55;86.37
28921;BME280;16035;53.594;9.952;2024-02-16T00:51:21;101043.91;;;12.53;86.49
28921;BME280;16035;53.594;9.952;2024-02-16T00:53:23;101043.91;;;12.53;86.55
28921;BME280;16035;53.594;9.952;2024-02-16T00:55:24;101043.09;;;12.52;86.37
28921;BME280;16035;53.594;9.952;2024-02-16T00:57:25;101044.97;;;12.47;85.96
28921;BME280;16035;53.594;9.952;2024-02-16T00:59:25;101037.59;;;12.42;86.18
28921;BME280;16035;53.594;9.952;2024-02-16T01:01:25;101046.84;;;12.41;86.12
28921;BME280;16035;53.594;9.952;2024-02-16T01:03:26;101042.22;;;12.42;86.01
28921;BME280;16035;53.594;9.952;2024-02-16T01:05:26;101037.84;;;12.40;85.84
28921;BME280;16035;53.594;9.952;2024-02-16T01:07:27;101039.47;;;12.36;85.83
28921;BME280;16035;53.594;9.952;2024-02-16T01:09:27;101027.72;;;12.31;86.11
28921;BME280;16035;53.594;9.952;2024-02-16T01:11:27;101035.34;;;12.29;85.97
28921;BME280;16035;53.594;9.952;2024-02-16T01:13:28;101042.97;;;12.27;85.88
28921;BME280;16035;53.594;9.952;2024-02-16T01:15:28;101041.31;;;12.26;86.11
28921;BME280;16035;53.594;9.952;2024-02-16T01:17:28;101045.16;;;12.25;85.72
28921;BME280;16035;53.594;9.952;2024-02-16T01:19:29;101047.31;;;12.23;86.00
28921;BME280;16035;53.594;9.952;2024-02-16T01:21:30;101051.38;;;12.20;85.79
28921;BME280;16035;53.594;9.952;2024-02-16T01:23:30;101054.09;;;12.15;85.82
28921;BME280;16035;53.594;9.952;2024-02-16T01:25:31;101050.78;;;12.13;85.81
28921;BME280;16035;53.594;9.952;2024-02-16T01:27:32;101053.78;;;12.11;85.98
28921;BME280;16035;53.594;9.952;2024-02-16T01:29:32;101045.91;;;12.10;86.05
28921;BME280;16035;53.594;9.952;2024-02-16T01:31:32;101037.97;;;12.08;86.02
28921;BME280;16035;53.594;9.952;2024-02-16T01:33:33;101035.25;;;12.08;85.98
28921;BME280;16035;53.594;9.952;2024-02-16T01:35:35;101041.50;;;12.09;86.06
28921;BME280;16035;53.594;9.952;2024-02-16T01:37:35;101039.06;;;12.07;86.05
28921;BME280;16035;53.594;9.952;2024-02-16T01:39:35;101029.25;;;12.06;86.11
28921;BME280;16035;53.594;9.952;2024-02-16T01:41:39;101020.25;;;12.06;86.03
28921;BME280;16035;53.594;9.952;2024-02-16T01:43:39;101020.81;;;12.08;85.60
28921;BME280;16035;53.594;9.952;2024-02-16T01:45:40;101023.78;;;12.01;85.74
28921;BME280;16035;53.594;9.952;2024-02-16T01:47:41;101019.38;;;12.00;85.76
28921;BME280;16035;53.594;9.952;2024-02-16T01:49:43;101024.03;;;12.05;85.85
28921;BME280;16035;53.594;9.952;2024-02-16T01:51:43;101025.13;;;12.04;85.50
28921;BME280;16035;53.594;9.952;2024-02-16T01:53:45;101029.44;;;11.95;85.42
28921;BME280;16035;53.594;9.952;2024-02-16T01:55:46;101023.78;;;12.01;85.86
28921;BME280;16035;53.594;9.952;2024-02-16T01:57:47;101019.69;;;12.04;85.70
28921;BME280;16035;53.594;9.952;2024-02-16T01:59:48;101024.00;;;11.95;85.43
28921;BME280;16035;53.594;9.952;2024-02-16T02:01:48;101008.47;;;11.95;85.66
28921;BME280;16035;53.594;9.952;2024-02-16T02:03:48;101008.22;;;11.97;85.77
28921;BME280;16035;53.594;9.952;2024-02-16T02:05:49;100999.78;;;11.98;85.72
28921;BME280;16035;53.594;9.952;2024-02-16T02:07:51;100986.69;;;12.00;85.32
28921;BME280;16035;53.594;9.952;2024-02-16T02:09:51;100980.72;;;11.98;85.39
28921;BME280;16035;53.594;9.952;2024-02-16T02:11:52;100985.34;;;11.98;85.53
28921;BME280;16035;53.594;9.952;2024-02-16T02:13:52;100984.78;;;11.96;85.58
28921;BME280;16035;53.594;9.952;2024-02-16T02:15:53;100985.88;;;11.95;85.46
28921;BME280;16035;53.594;9.952;2024-02-16T02:17:54;100965.97;;;11.94;85.63
28921;BME280;16035;53.594;9.952;2024-02-16T02:19:54;100968.72;;;11.99;85.41
28921;BME280;16035;53.594;9.952;2024-02-16T02:21:56;100975.56;;;12.02;85.40
28921;BME280;16035;53.594;9.952;2024-02-16T02:23:56;100971.75;;;12.03;85.47
28921;BME280;16035;53.594;9.952;2024-02-16T02:25:57;100962.44;;;11.94;85.15
28921;BME280;16035;53.594;9.952;2024-02-16T02:27:57;100971.94;;;11.91;85.45
28921;BME280;16035;53.594;9.952;2024-02-16T02:29:58;100972.25;;;11.95;85.46
28921;BME280;16035;53.594;9.952;2024-02-16T02:31:59;100974.69;;;11.96;85.35
28921;BME280;16035;53.594;9.952;2024-02-16T02:33:59;100970.63;;;11.99;85.42
28921;BME280;16035;53.594;9.952;2024-02-16T02:35:59;100963.25;;;11.94;85.20
28921;BME280;16035;53.594;9.952;2024-02-16T02:38:00;100962.97;;;11.96;85.39
28921;BME280;16035;53.594;9.952;2024-02-16T02:40:00;100964.06;;;11.95;85.49
28921;BME280;16035;53.594;9.952;2024-02-16T02:42:01;100965.44;;;11.92;85.23
28921;BME280;16035;53.594;9.952;2024-02-16T02:44:01;100962.72;;;11.92;85.26
28921;BME280;16035;53.594;9.952;2024-02-16T02:46:01;100954.00;;;11.95;85.30
28921;BME280;16035;53.594;9.952;2024-02-16T02:48:02;100950.97;;;11.92;85.26
28921;BME280;16035;53.594;9.952;2024-02-16T02:50:02;100951.53;;;11.88;84.84
28921;BME280;16035;53.594;9.952;2024-02-16T02:52:04;100951.78;;;11.87;85.24
28921;BME280;16035;53.594;9.952;2024-02-16T02:54:06;100951.53;;;11.88;85.22
28921;BME280;16035;53.594;9.952;2024-02-16T02:56:07;100943.34;;;11.83;85.64
28921;BME280;16035;53.594;9.952;2024-02-16T02:58:07;100945.50;;;11.86;85.32
28921;BME280;16035;53.594;9.952;2024-02-16T03:00:08;100941.97;;;11.86;85.09
28921;BME280;16035;53.594;9.952;2024-02-16T03:02:11;100938.09;;;11.82;85.60
28921;BME280;16035;53.594;9.952;2024-02-16T03:04:11;100929.72;;;11.83;85.44
28921;BME280;16035;53.594;9.952;2024-02-16T03:06:12;100937.03;;;11.83;84.93
28921;BME280;16035;53.594;9.952;2024-02-16T03:08:12;100935.97;;;11.84;85.17
28921;BME280;16035;53.594;9.952;2024-02-16T03:10:12;100927.84;;;11.89;85.46
28921;BME280;16035;53.594;9.952;2024-02-16T03:12:15;100926.22;;;11.93;85.34
28921;BME280;16035;53.594;9.952;2024-02-16T03:14:18;100921.03;;;11.92;85.13
28921;BME280;16035;53.594;9.952;2024-02-16T03:16:18;100920.22;;;11.91;85.14
28921;BME280;16035;53.594;9.952;2024-02-16T03:18:19;100910.94;;;11.87;85.05
28921;BME280;16035;53.594;9.952;2024-02-16T03:20:19;100909.81;;;11.83;85.10
28921;BME280;16035;53.594;9.952;2024-02-16T03:22:20;100900.53;;;11.79;85.24
28921;BME280;16035;53.594;9.952;2024-02-16T03:24:20;100900.25;;;11.80;85.33
28921;BME280;16035;53.594;9.952;2024-02-16T03:26:21;100904.13;;;11.84;85.16
28921;BME280;16035;53.594;9.952;2024-02-16T03:28:21;100897.03;;;11.83;85.03
28921;BME280;16035;53.594;9.952;2024-02-16T03:30:21;100884.25;;;11.84;85.66
28921;BME280;16035;53.594;9.952;2024-02-16T03:32:22;100898.13;;;11.87;85.36
28921;BME280;16035;53.594;9.952;2024-02-16T03:34:22;100896.50;;;11.92;84.84
28921;BME280;16035;53.594;9.952;2024-02-16T03:36:23;100891.63;;;11.88;84.96
28921;BME280;16035;53.594;9.952;2024-02-16T03:38:23;100880.97;;;11.87;84.92
28921;BME280;16035;53.594;9.952;2024-02-16T03:40:24;100890.75;;;11.83;84.97
28921;BME280;16035;53.594;9.952;2024-02-16T03:42:25;100894.88;;;11.85;85.18
28921;BME280;16035;53.594;9.952;2024-02-16T03:44:26;100894.06;;;11.90;84.97
28921;BME280;16035;53.594;9.952;2024-02-16T03:46:26;100895.44;;;11.93;84.88
28921;BME280;16035;53.594;9.952;2024-02-16T03:48:27;100900.09;;;11.92;85.10
28921;BME280;16035;53.594;9.952;2024-02-16T03:50:27;100898.69;;;11.89;84.51
28921;BME280;16035;53.594;9.952;2024-02-16T03:52:27;100895.16;;;11.89;84.94
28921;BME280;16035;53.594;9.952;2024-02-16T03:54:27;100893.53;;;11.93;84.97
28921;BME280;16035;53.594;9.952;2024-02-16T03:56:28;100899.00;;;11.93;85.02
28921;BME280;16035;53.594;9.952;2024-02-16T03:58:28;100900.31;;;11.91;85.04
28921;BME280;16035;53.594;9.952;2024-02-16T04:00:28;100892.97;;;11.91;84.90
28921;BME280;16035;53.594;9.952;2024-02-16T04:02:29;100889.13;;;11.87;84.97
28921;BME280;16035;53.594;9.952;2024-02-16T04:04:29;100890.81;;;11.88;84.63
28921;BME280;16035;53.594;9.952;2024-02-16T04:06:29;100884.81;;;11.91;84.80
28921;BME280;16035;53.594;9.952;2024-02-16T04:08:30;100889.19;;;11.92;84.87
28921;BME280;16035;53.594;9.952;2024-02-16T04:10:30;100888.63;;;11.95;84.73
28921;BME280;16035;53.594;9.952;2024-02-16T04:12:30;100883.75;;;11.92;84.91
28921;BME280;16035;53.594;9.952;2024-02-16T04:14:31;100879.94;;;11.93;84.92
28921;BME280;16035;53.594;9.952;2024-02-16T04:16:32;100878.56;;;11.96;84.64
28921;BME280;16035;53.594;9.952;2024-02-16T04:18:32;100881.28;;;11.96;84.67
28921;BME280;16035;53.594;9.952;2024-02-16T04:20:33;100868.47;;;11.96;84.82
28921;BME280;16035;53.594;9.952;2024-02-16T04:22:33;100871.78;;;11.98;84.72
28921;BME280;16035;53.594;9.952;2024-02-16T04:24:37;100860.34;;;12.01;84.72
28921;BME280;16035;53.594;9.952;2024-02-16T04:26:38;100867.69;;;12.01;84.73
28921;BME280;16035;53.594;9.952;2024-02-16T04:28:39;100873.69;;;12.03;84.67
28921;BME280;16035;53.594;9.952;2024-02-16T04:30:39;100873.97;;;12.06;84.27
28921;BME280;16035;53.594;9.952;2024-02-16T04:32:39;100878.03;;;12.04;84.33
28921;BME280;16035;53.594;9.952;2024-02-16T04:34:40;100867.16;;;12.04;84.15
28921;BME280;16035;53.594;9.952;2024-02-16T04:36:41;100872.59;;;12.04;84.40
28921;BME280;16035;53.594;9.952;2024-02-16T04:38:41;100864.69;;;12.02;84.31
28921;BME280;16035;53.594;9.952;2024-02-16T04:40:41;100871.25;;;12.01;84.46
28921;BME280;16035;53.594;9.952;2024-02-16T04:42:41;100868.53;;;12.01;84.31
28921;BME280;16035;53.594;9.952;2024-02-16T04:44:42;100867.94;;;11.99;84.26
28921;BME280;16035;53.594;9.952;2024-02-16T04:46:42;100868.47;;;11.96;84.33
28921;BME280;16035;53.594;9.952;2024-02-16T04:48:43;100874.50;;;11.98;84.31
28921;BME280;16035;53.594;9.952;2024-02-16T04:50:43;100869.31;;;11.97;84.24
28921;BME280;16035;53.594;9.952;2024-02-16T04:52:43;100869.31;;;11.97;84.24
28921;BME280;16035;53.594;9.952;2024-02-16T04:54:44;100865.75;;;11.96;84.00
28921;BME280;16035;53.594;9.952;2024-02-16T04:56:44;100866.84;;;11.95;84.14
28921;BME280;16035;53.594;9.952;2024-02-16T04:58:45;100860.06;;;11.98;84.12
28921;BME280;16035;53.594;9.952;2024-02-16T05:00:45;100861.16;;;12.02;83.87
28921;BME280;16035;53.594;9.952;2024-02-16T05:02:46;100859.75;;;11.89;83.91
28921;BME280;16035;53.594;9.952;2024-02-16T05:04:47;100862.50;;;11.94;84.18
28921;BME280;16035;53.594;9.952;2024-02-16T05:06:47;100859.50;;;11.96;83.95
28921;BME280;16035;53.594;9.952;2024-02-16T05:08:47;100852.69;;;11.93;84.07
28921;BME280;16035;53.594;9.952;2024-02-16T05:10:48;100856.50;;;11.92;83.91
28921;BME280;16035;53.594;9.952;2024-02-16T05:12:48;100854.59;;;11.93;83.80
28921;BME280;16035;53.594;9.952;2024-02-16T05:14:49;100857.31;;;11.93;84.10
28921;BME280;16035;53.594;9.952;2024-02-16T05:16:50;100860.88;;;11.93;83.72
28921;BME280;16035;53.594;9.952;2024-02-16T05:18:51;100860.31;;;11.96;83.96
28921;BME280;16035;53.594;9.952;2024-02-16T05:20:51;100860.06;;;11.98;83.74
28921;BME280;16035;53.594;9.952;2024-02-16T05:22:52;100861.16;;;11.97;83.54
28921;BME280;16035;53.594;9.952;2024-02-16T05:24:53;100855.41;;;11.93;83.84
28921;BME280;16035;53.594;9.952;2024-02-16T05:26:53;100855.41;;;11.93;83.46
28921;BME280;16035;53.594;9.952;2024-02-16T05:28:54;100845.34;;;11.94;83.64
28921;BME280;16035;53.594;9.952;2024-02-16T05:30:55;100841.22;;;11.91;83.64
28921;BME280;16035;53.594;9.952;2024-02-16T05:32:55;100841.22;;;11.91;83.78
28921;BME280;16035;53.594;9.952;2024-02-16T05:34:58;100836.59;;;11.92;83.39
28921;BME280;16035;53.594;9.952;2024-02-16T05:36:59;100842.59;;;11.88;83.51
28921;BME280;16035;53.594;9.952;2024-02-16T05:38:59;100837.69;;;11.85;83.44
28921;BME280;16035;53.594;9.952;2024-02-16T05:41:10;100843.13;;;11.85;83.46
28921;BME280;16035;53.594;9.952;2024-02-16T05:43:11;100841.22;;;11.86;83.69
28921;BME280;16035;53.594;9.952;2024-02-16T05:45:12;100836.03;;;11.84;83.62
28921;BME280;16035;53.594;9.952;2024-02-16T05:47:12;100843.41;;;11.84;83.35
28921;BME280;16035;53.594;9.952;2024-02-16T05:49:14;100840.06;;;11.82;83.62
28921;BME280;16035;53.594;9.952;2024-02-16T05:51:15;100842.25;;;11.80;83.56
28921;BME280;16035;53.594;9.952;2024-02-16T05:53:15;100851.25;;;11.80;83.53
28921;BME280;16035;53.594;9.952;2024-02-16T05:55:16;100854.50;;;11.77;83.48
28921;BME280;16035;53.594;9.952;2024-02-16T05:57:18;100853.69;;;11.77;83.69
28921;BME280;16035;53.594;9.952;2024-02-16T05:59:19;100855.03;;;11.74;83.56
28921;BME280;16035;53.594;9.952;2024-02-16T06:01:19;100854.47;;;11.72;83.44
28921;BME280;16035;53.594;9.952;2024-02-16T06:03:20;100853.38;;;11.73;83.60
28921;BME280;16035;53.594;9.952;2024-02-16T06:05:20;100853.66;;;11.72;83.52
28921;BME280;16035;53.594;9.952;2024-02-16T06:07:21;100850.38;;;11.70;83.53
28921;BME280;16035;53.594;9.952;2024-02-16T06:09:21;100852.03;;;11.71;83.81
28921;BME280;16035;53.594;9.952;2024-02-16T06:11:21;100844.69;;;11.71;83.81
28921;BME280;16035;53.594;9.952;2024-02-16T06:13:22;100854.19;;;11.74;83.68
28921;BME280;16035;53.594;9.952;2024-02-16T06:15:22;100850.66;;;11.73;83.47
28921;BME280;16035;53.594;9.952;2024-02-16T06:17:22;100851.47;;;11.74;83.34
28921;BME280;16035;53.594;9.952;2024-02-16T06:19:23;100850.66;;;11.73;83.33
28921;BME280;16035;53.594;9.952;2024-02-16T06:21:23;100854.19;;;11.74;83.31
28921;BME280;16035;53.594;9.952;2024-02-16T06:23:23;100846.31;;;11.72;83.43
28921;BME280;16035;53.594;9.952;2024-02-16T06:25:24;100843.03;;;11.70;83.10
28921;BME280;16035;53.594;9.952;2024-02-16T06:27:24;100847.09;;;11.68;83.56
28921;BME280;16035;53.594;9.952;2024-02-16T06:29:24;100841.66;;;11.68;83.30
28921;BME280;16035;53.594;9.952;2024-02-16T06:31:25;100844.38;;;11.68;83.17
28921;BME280;16035;53.594;9.952;2024-02-16T06:33:25;100853.88;;;11.65;83.44
28921;BME280;16035;53.594;9.952;2024-02-16T06:35:25;100848.19;;;11.61;83.55
28921;BME280;16035;53.594;9.952;2024-02-16T06:37:26;100861.22;;;11.59;83.42
28921;BME280;16035;53.594;9.952;2024-02-16T06:39:26;100860.69;;;11.57;83.25
28921;BME280;16035;53.594;9.952;2024-02-16T06:41:26;100860.38;;;11.54;83.02
28921;BME280;16035;53.594;9.952;2024-02-16T06:43:27;100853.56;;;11.51;83.39
28921;BME280;16035;53.594;9.952;2024-02-16T06:45:27;100858.19;;;11.51;83.18
28921;BME280;16035;53.594;9.952;2024-02-16T06:47:29;100865.81;;;11.49;83.42
28921;BME280;16035;53.594;9.952;2024-02-16T06:49:29;100860.59;;;11.47;83.50
28921;BME280;16035;53.594;9.952;2024-02-16T06:51:30;100859.78;;;11.47;83.36
28921;BME280;16035;53.594;9.952;2024-02-16T06:53:32;100856.53;;;11.45;83.54
28921;BME280;16035;53.594;9.952;2024-02-16T06:55:32;100853.81;;;11.45;83.58
28921;BME280;16035;53.594;9.952;2024-02-16T06:57:33;100856.78;;;11.43;83.60
28921;BME280;16035;53.594;9.952;2024-02-16T06:59:33;100852.19;;;11.44;83.58
28921;BME280;16035;53.594;9.952;2024-02-16T07:01:33;100854.63;;;11.45;83.44
28921;BME280;16035;53.594;9.952;2024-02-16T07:03:34;100856.53;;;11.45;83.46
28921;BME280;16035;53.594;9.952;2024-02-16T07:05:36;100851.09;;;11.45;83.20
28921;BME280;16035;53.594;9.952;2024-02-16T07:07:37;100855.41;;;11.41;83.24
28921;BME280;16035;53.594;9.952;2024-02-16T07:09:37;100858.66;;;11.37;83.47
28921;BME280;16035;53.594;9.952;2024-02-16T07:11:39;100867.09;;;11.36;83.27
28921;BME280;16035;53.594;9.952;2024-02-16T07:13:40;100873.34;;;11.36;83.44
28921;BME280;16035;53.594;9.952;2024-02-16T07:15:42;100872.53;;;11.36;83.50
28921;BME280;16035;53.594;9.952;2024-02-16T07:17:43;100877.69;;;11.37;83.40
28921;BME280;16035;53.594;9.952;2024-02-16T07:19:44;100888.25;;;11.29;83.25
28921;BME280;16035;53.594;9.952;2024-02-16T07:21:44;100880.69;;;11.36;83.70
28921;BME280;16035;53.594;9.952;2024-02-16T07:23:45;100877.47;;;11.39;83.43
28921;BME280;16035;53.594;9.952;2024-02-16T07:25:45;100876.66;;;11.44;83.45
28921;BME280;16035;53.594;9.952;2024-02-16T07:27:46;100873.69;;;11.50;83.55
28921;BME280;16035;53.594;9.952;2024-02-16T07:29:46;100877.25;;;11.56;83.49
28921;BME280;16035;53.594;9.952;2024-02-16T07:31:46;100872.69;;;11.61;83.54
28921;BME280;16035;53.594;9.952;2024-02-16T07:33:47;100874.34;;;11.68;83.55
28921;BME280;16035;53.594;9.952;2024-02-16T07:35:47;100874.34;;;11.73;83.29
28921;BME280;16035;53.594;9.952;2024-02-16T07:37:48;100874.13;;;11.79;83.30
28921;BME280;16035;53.594;9.952;2024-02-16T07:39:48;100869.84;;;11.88;83.04
28921;BME280;16035;53.594;9.952;2024-02-16T07:41:49;100876.66;;;11.96;82.93
28921;BME280;16035;53.594;9.952;2024-02-16T07:43:49;100866.34;;;12.03;82.86
28921;BME280;16035;53.594;9.952;2024-02-16T07:45:50;100871.00;;;12.13;82.89
28921;BME280;16035;53.594;9.952;2024-02-16T07:47:54;100876.44;;;12.18;82.57
28921;BME280;16035;53.594;9.952;2024-02-16T07:49:54;100882.47;;;12.25;82.74
28921;BME280;16035;53.594;9.952;2024-02-16T07:51:54;100877.03;;;12.30;82.25
28921;BME280;16035;53.594;9.952;2024-02-16T07:53:55;100881.41;;;12.36;82.53
28921;BME280;16035;53.594;9.952;2024-02-16T07:55:55;100887.13;;;12.40;82.37
28921;BME280;16035;53.594;9.952;2024-02-16T07:57:56;100884.41;;;12.45;82.48
28921;BME280;16035;53.594;9.952;2024-02-16T07:59:56;100890.44;;;12.52;82.33
28921;BME280;16035;53.594;9.952;2024-02-16T08:01:57;100883.88;;;12.58;82.14
28921;BME280;16035;53.594;9.952;2024-02-16T08:03:57;100887.72;;;12.68;81.88
28921;BME280;16035;53.594;9.952;2024-02-16T08:05:57;100882.28;;;12.78;81.78
28921;BME280;16035;53.594;9.952;2024-02-16T08:07:58;100876.84;;;12.83;81.44
28921;BME280;16035;53.594;9.952;2024-02-16T08:09:58;100873.25;;;13.03;81.66
28921;BME280;16035;53.594;9.952;2024-02-16T08:12:00;100873.53;;;13.22;81.05
28921;BME280;16035;53.594;9.952;2024-02-16T08:14:05;100866.97;;;13.38;81.14
28921;BME280;16035;53.594;9.952;2024-02-16T08:16:05;100862.31;;;13.44;80.21
28921;BME280;16035;53.594;9.952;2024-02-16T08:18:07;100857.69;;;13.44;80.06
28921;BME280;16035;53.594;9.952;2024-02-16T08:20:07;100853.56;;;13.47;80.03
28921;BME280;16035;53.594;9.952;2024-02-16T08:22:11;100845.13;;;13.38;79.63
28921;BME280;16035;53.594;9.952;2024-02-16T08:24:11;100850.06;;;13.36;80.24
28921;BME280;16035;53.594;9.952;2024-02-16T08:26:12;100851.16;;;13.35;80.02
28921;BME280;16035;53.594;9.952;2024-02-16T08:28:13;100844.34;;;13.32;80.06
28921;BME280;16035;53.594;9.952;2024-02-16T08:30:13;100836.44;;;13.31;80.27
28921;BME280;16035;53.594;9.952;2024-02-16T08:32:13;100833.16;;;13.29;80.11
28921;BME280;16035;53.594;9.952;2024-02-16T08:34:14;100847.91;;;13.23;79.80
28921;BME280;16035;53.594;9.952;2024-02-16T08:36:14;100856.31;;;13.21;79.61
28921;BME280;16035;53.594;9.952;2024-02-16T08:38:15;100848.13;;;13.21;79.45
28921;BME280;16035;53.594;9.952;2024-02-16T08:40:16;100859.06;;;13.16;79.70
28921;BME280;16035;53.594;9.952;2024-02-16T08:42:16;100854.97;;;13.03;79.27
28921;BME280;16035;53.594;9.952;2024-02-16T08:44:17;100847.66;;;13.04;79.53
28921;BME280;16035;53.594;9.952;2024-02-16T08:46:19;100849.81;;;13.02;79.41
28921;BME280;16035;53.594;9.952;2024-02-16T08:48:19;100844.34;;;13.02;79.24
28921;BME280;16035;53.594;9.952;2024-02-16T08:50:19;100852.28;;;13.08;79.70
28921;BME280;16035;53.594;9.952;2024-02-16T08:52:20;100847.06;;;13.12;78.95
28921;BME280;16035;53.594;9.952;2024-02-16T08:54:20;100857.16;;;13.16;79.02
28921;BME280;16035;53.594;9.952;2024-02-16T08:56:20;100851.44;;;13.18;79.10
28921;BME280;16035;53.594;9.952;2024-02-16T08:58:21;100847.59;;;13.19;78.94
28921;BME280;16035;53.594;9.952;2024-02-16T09:00:21;100847.88;;;13.12;78.65
28921;BME280;16035;53.594;9.952;2024-02-16T09:02:23;100848.16;;;13.11;78.50
28921;BME280;16035;53.594;9.952;2024-02-16T09:04:24;100843.81;;;13.05;78.77
28921;BME280;16035;53.594;9.952;2024-02-16T09:06:25;100848.47;;;13.04;78.07
28921;BME280;16035;53.594;9.952;2024-02-16T09:08:26;100847.34;;;13.10;78.34
28921;BME280;16035;53.594;9.952;2024-02-16T09:10:36;100848.72;;;13.13;78.40
28921;BME280;16035;53.594;9.952;2024-02-16T09:12:36;100844.59;;;13.15;78.28
28921;BME280;16035;53.594;9.952;2024-02-16T09:14:37;100852.56;;;13.22;78.66
28921;BME280;16035;53.594;9.952;2024-02-16T09:16:37;100843.53;;;13.22;78.05
28921;BME280;16035;53.594;9.952;2024-02-16T09:18:38;100846.81;;;13.13;78.04
28921;BME280;16035;53.594;9.952;2024-02-16T09:20:38;100852.81;;;13.10;77.57
28921;BME280;16035;53.594;9.952;2024-02-16T09:22:41;100842.72;;;13.06;78.28
28921;BME280;16035;53.594;9.952;2024-02-16T09:24:42;100840.28;;;13.04;77.55
28921;BME280;16035;53.594;9.952;2024-02-16T09:26:48;100840.25;;;13.09;77.84
28921;BME280;16035;53.594;9.952;2024-02-16T09:28:48;100837.53;;;13.14;77.74
28921;BME280;16035;53.594;9.952;2024-02-16T09:30:48;100836.16;;;13.17;77.49
28921;BME280;16035;53.594;9.952;2024-02-16T09:32:49;100834.50;;;13.21;77.81
28921;BME280;16035;53.594;9.952;2024-02-16T09:34:49;100834.25;;;13.23;77.60
28921;BME280;16035;53.594;9.952;2024-02-16T09:36:51;100833.97;;;13.19;77.77
28921;BME280;16035;53.594;9.952;2024-02-16T09:38:51;100834.25;;;13.23;77.62
28921;BME280;16035;53.594;9.952;2024-02-16T09:40:51;100850.06;;;13.26;76.96
28921;BME280;16035;53.594;9.952;2024-02-16T09:42:52;100851.16;;;13.35;76.89
28921;BME280;16035;53.594;9.952;2024-02-16T09:44:54;100849.50;;;13.34;77.44
28921;BME280;16035;53.594;9.952;2024-02-16T09:46:54;100846.50;;;13.40;77.42
28921;BME280;16035;53.594;9.952;2024-02-16T09:48:56;100848.66;;;13.44;76.97
28921;BME280;16035;53.594;9.952;2024-02-16T09:50:57;100841.31;;;13.44;76.84
28921;BME280;16035;53.594;9.952;2024-02-16T09:53:03;100848.94;;;13.47;77.38
28921;BME280;16035;53.594;9.952;2024-02-16T09:55:07;100846.44;;;13.56;77.40
28921;BME280;16035;53.594;9.952;2024-02-16T09:57:10;100852.97;;;13.65;77.26
28921;BME280;16035;53.594;9.952;2024-02-16T09:59:10;100855.16;;;13.63;76.66
28921;BME280;16035;53.594;9.952;2024-02-16T10:01:19;100852.16;;;13.64;76.50
28921;BME280;16035;53.594;9.952;2024-02-16T10:03:25;100849.41;;;13.64;76.33
28921;BME280;16035;53.594;9.952;2024-02-16T10:05:25;100852.16;;;13.64;76.84
28921;BME280;16035;53.594;9.952;2024-02-16T10:07:32;100849.94;;;13.72;76.88
28921;BME280;16035;53.594;9.952;2024-02-16T10:09:33;100849.59;;;13.83;76.54
28921;BME280;16035;53.594;9.952;2024-02-16T10:11:34;100849.84;;;13.92;76.67
28921;BME280;16035;53.594;9.952;2024-02-16T10:13:35;100856.13;;;13.98;76.13
28921;BME280;16035;53.594;9.952;2024-02-16T10:15:35;100858.53;;;14.04;76.15
28921;BME280;16035;53.594;9.952;2024-02-16T10:17:36;100852.47;;;14.12;76.11
28921;BME280;16035;53.594;9.952;2024-02-16T10:19:36;100855.97;;;14.23;76.35
28921;BME280;16035;53.594;9.952;2024-02-16T10:21:43;100864.59;;;14.40;75.95
28921;BME280;16035;53.594;9.952;2024-02-16T10:23:44;100865.31;;;14.61;76.15
28921;BME280;16035;53.594;9.952;2024-02-16T10:25:44;100866.03;;;14.72;75.87
28921;BME280;16035;53.594;9.952;2024-02-16T10:27:46;100861.88;;;14.80;75.58
28921;BME280;16035;53.594;9.952;2024-02-16T10:29:47;100865.13;;;14.87;75.32
28921;BME280;16035;53.594;9.952;2024-02-16T10:31:51;100866.41;;;14.95;75.24